createdAt,value
2019-04-28T00:01:11.293Z,72.04
2019-04-28T00:03:38.563Z,72.08
2019-04-28T00:06:05.477Z,72.18
2019-04-28T00:08:32.522Z,71.72
2019-04-28T00:10:59.524Z,71.76
2019-04-28T00:13:26.814Z,70.89
2019-04-28T00:15:53.710Z,71.42
2019-04-28T00:18:22.082Z,70.83
2019-04-28T00:20:54.131Z,71.23
2019-04-28T00:23:29.200Z,71.58
2019-04-28T00:25:58.262Z,71.93
2019-04-28T00:28:25.507Z,71.73
2019-04-28T00:30:52.731Z,71.82
2019-04-28T00:33:19.868Z,72.15
2019-04-28T00:35:46.939Z,72.22
2019-04-28T00:38:14.206Z,72.20
2019-04-28T00:40:41.428Z,72.15
2019-04-28T00:43:08.653Z,72.25
2019-04-28T00:45:35.690Z,72.36
2019-04-28T00:48:02.988Z,72.47
2019-04-28T00:50:31.604Z,72.35
2019-04-28T00:52:58.716Z,72.29
2019-04-28T00:55:25.775Z,72.94
2019-04-28T00:57:53.504Z,73.00
2019-04-28T01:00:23.186Z,73.39
2019-04-28T01:02:50.960Z,73.02
2019-04-28T01:05:18.880Z,73.33
2019-04-28T01:07:46.187Z,73.78
2019-04-28T01:10:14.377Z,73.88
2019-04-28T01:12:41.587Z,74.34
2019-04-28T01:15:11.363Z,73.94
2019-04-28T01:17:50.069Z,74.63
2019-04-28T01:20:19.716Z,74.55
2019-04-28T01:22:46.746Z,74.36
2019-04-28T01:25:14.003Z,74.29
2019-04-28T01:27:41.065Z,74.42
2019-04-28T01:30:11.301Z,74.33
2019-04-28T01:32:46.330Z,74.42
2019-04-28T01:35:14.264Z,73.79
2019-04-28T01:37:41.268Z,74.19
2019-04-28T01:40:09.634Z,74.12
2019-04-28T01:42:37.019Z,74.07
2019-04-28T01:45:06.868Z,74.28
2019-04-28T01:47:33.775Z,74.08
2019-04-28T01:50:02.017Z,74.29
2019-04-28T01:52:30.302Z,74.37
2019-04-28T01:54:57.435Z,74.41
2019-04-28T01:57:24.455Z,74.67
2019-04-28T01:59:51.538Z,74.85
2019-04-28T02:02:19.897Z,75.48
2019-04-28T02:04:46.933Z,75.39
2019-04-28T02:07:13.833Z,75.98
2019-04-28T02:09:41.297Z,75.97
2019-04-28T02:12:10.532Z,76.04
2019-04-28T02:14:37.525Z,76.08
2019-04-28T02:17:04.700Z,76.41
2019-04-28T02:19:33.109Z,76.77
2019-04-28T02:22:02.285Z,76.90
2019-04-28T02:24:33.882Z,76.77
2019-04-28T02:27:01.458Z,77.03
2019-04-28T02:29:30.113Z,77.36
2019-04-28T02:31:57.675Z,76.75
2019-04-28T02:34:24.863Z,77.18
2019-04-28T02:36:53.841Z,77.74
2019-04-28T02:39:21.573Z,77.31
2019-04-28T02:41:51.172Z,77.15
2019-04-28T02:44:20.660Z,77.15
2019-04-28T02:46:47.368Z,76.95
2019-04-28T02:49:20.313Z,76.95
2019-04-28T02:51:55.294Z,77.60
2019-04-28T02:54:22.522Z,77.79
2019-04-28T02:56:51.001Z,77.32
2019-04-28T02:59:20.872Z,77.60
2019-04-28T03:01:47.281Z,77.21
2019-04-28T03:04:14.464Z,77.21
2019-04-28T03:06:43.028Z,77.69
2019-04-28T03:09:10.633Z,77.67
2019-04-28T03:11:38.197Z,77.76
2019-04-28T03:14:05.489Z,77.40
2019-04-28T03:16:32.747Z,77.16
2019-04-28T03:19:01.251Z,77.06
2019-04-28T03:21:31.051Z,77.27
2019-04-28T03:23:58.000Z,76.94
2019-04-28T03:26:26.997Z,76.84
2019-04-28T03:29:01.036Z,76.90
2019-04-28T03:32:07.714Z,77.05
2019-04-28T03:34:03.405Z,77.17
2019-04-28T03:36:32.533Z,77.17
2019-04-28T03:38:57.095Z,76.64
2019-04-28T03:41:24.151Z,76.62
2019-04-28T03:43:51.516Z,76.90
2019-04-28T03:46:23.260Z,76.92
2019-04-28T03:48:50.959Z,76.71
2019-04-28T03:51:20.951Z,77.24
2019-04-28T03:53:47.183Z,76.90
2019-04-28T03:56:14.400Z,77.04
2019-04-28T03:58:41.356Z,77.09
2019-04-28T04:01:10.794Z,77.85
2019-04-28T04:03:37.677Z,77.98
2019-04-28T04:06:04.785Z,77.98
2019-04-28T04:08:31.785Z,78.22
2019-04-28T04:11:00.272Z,78.06
2019-04-28T04:13:36.163Z,78.10
2019-04-28T04:16:03.255Z,78.17
2019-04-28T04:18:40.503Z,78.06
2019-04-28T04:21:06.851Z,77.95
2019-04-28T04:23:34.117Z,78.03
2019-04-28T04:26:01.872Z,77.92
2019-04-28T04:28:30.442Z,77.63
2019-04-28T04:31:00.510Z,78.03
2019-04-28T04:33:26.622Z,78.03
2019-04-28T04:35:53.787Z,77.68
2019-04-28T04:38:21.805Z,77.27
2019-04-28T04:40:51.244Z,77.78
2019-04-28T04:43:21.071Z,77.80
2019-04-28T04:45:50.103Z,77.85
2019-04-28T04:48:16.108Z,77.66
2019-04-28T04:50:43.111Z,77.82
2019-04-28T04:53:11.177Z,77.77
2019-04-28T04:55:40.582Z,77.97
2019-04-28T04:58:07.453Z,77.97
2019-04-28T05:00:36.492Z,77.45
2019-04-28T05:03:10.483Z,77.67
2019-04-28T05:05:40.421Z,77.55
2019-04-28T05:08:07.555Z,77.60
2019-04-28T05:10:34.516Z,77.46
2019-04-28T05:13:01.524Z,77.46
2019-04-28T05:15:30.419Z,77.85
2019-04-28T05:17:57.559Z,78.04
2019-04-28T05:20:24.523Z,77.53
2019-04-28T05:22:53.319Z,77.67
2019-04-28T05:25:24.497Z,77.81
2019-04-28T05:27:54.613Z,77.81
2019-04-28T05:30:20.520Z,77.80
2019-04-28T05:32:53.610Z,77.80
2019-04-28T05:35:21.992Z,77.62
2019-04-28T05:37:49.330Z,77.56
2019-04-28T05:40:16.623Z,77.77
2019-04-28T05:42:57.720Z,77.37
2019-04-28T05:45:27.246Z,77.37
2019-04-28T05:47:56.200Z,77.64
2019-04-28T05:50:25.208Z,77.64
2019-04-28T05:53:12.600Z,77.53
2019-04-28T05:55:41.922Z,76.72
2019-04-28T05:58:13.693Z,77.89
2019-04-28T06:00:57.776Z,76.58
2019-04-28T06:03:27.835Z,77.53
2019-04-28T06:05:56.895Z,77.40
2019-04-28T06:08:28.147Z,77.23
2019-04-28T06:10:54.959Z,77.77
2019-04-28T06:13:22.060Z,77.77
2019-04-28T06:15:49.698Z,77.72
2019-04-28T06:18:16.654Z,77.36
2019-04-28T06:20:43.571Z,77.57
2019-04-28T06:23:11.599Z,77.17
2019-04-28T06:25:38.439Z,77.17
2019-04-28T06:28:05.547Z,77.47
2019-04-28T06:30:32.615Z,77.21
2019-04-28T06:33:07.600Z,76.93
2019-04-28T06:35:28.729Z,77.21
2019-04-28T06:37:55.939Z,77.21
2019-04-28T06:40:22.735Z,76.98
2019-04-28T06:42:49.935Z,77.31
2019-04-28T06:45:19.024Z,77.31
2019-04-28T06:47:45.987Z,77.61
2019-04-28T06:50:13.234Z,77.70
2019-04-28T06:52:40.258Z,77.64
2019-04-28T06:55:07.624Z,77.92
2019-04-28T06:57:34.558Z,77.42
2019-04-28T07:00:01.746Z,77.71
2019-04-28T07:02:29.270Z,77.48
2019-04-28T07:05:02.376Z,77.31
2019-04-28T07:07:27.471Z,77.24
2019-04-28T07:09:54.384Z,76.93
2019-04-28T07:12:23.748Z,77.24
2019-04-28T07:14:50.801Z,77.57
2019-04-28T07:17:18.020Z,77.42
2019-04-28T07:19:46.877Z,77.36
2019-04-28T07:22:24.807Z,76.79
2019-04-28T07:24:52.062Z,76.82
2019-04-28T07:27:19.473Z,76.77
2019-04-28T07:29:46.442Z,76.27
2019-04-28T07:32:13.446Z,76.62
2019-04-28T07:34:40.403Z,76.62
2019-04-28T07:37:07.339Z,76.58
2019-04-28T07:39:34.563Z,76.61
2019-04-28T07:42:01.579Z,76.12
2019-04-28T07:44:28.531Z,76.20
2019-04-28T07:46:55.493Z,76.46
2019-04-28T07:49:22.450Z,76.04
2019-04-28T07:51:52.223Z,75.95
2019-04-28T07:54:20.767Z,76.04
2019-04-28T07:56:47.678Z,76.32
2019-04-28T07:59:14.866Z,76.54
2019-04-28T08:01:41.867Z,76.66
2019-04-28T08:04:08.895Z,76.79
2019-04-28T08:06:35.981Z,76.77
2019-04-28T08:09:07.439Z,76.72
2019-04-28T08:11:34.339Z,76.87
2019-04-28T08:14:01.290Z,76.62
2019-04-28T08:16:28.456Z,76.98
2019-04-28T08:18:55.426Z,76.80
2019-04-28T08:21:22.435Z,76.68
2019-04-28T08:23:49.367Z,76.87
2019-04-28T08:26:16.478Z,77.30
2019-04-28T08:28:43.429Z,76.89
2019-04-28T08:31:12.379Z,76.77
2019-04-28T08:33:42.019Z,77.30
2019-04-28T08:36:08.967Z,77.63
2019-04-28T08:38:35.941Z,77.85
2019-04-28T08:41:03.107Z,76.88
2019-04-28T08:43:30.168Z,77.16
2019-04-28T08:45:57.111Z,77.85
2019-04-28T08:48:24.135Z,77.08
2019-04-28T08:50:51.117Z,77.13
2019-04-28T08:53:18.024Z,76.89
2019-04-28T08:55:45.307Z,77.13
2019-04-28T08:58:12.319Z,77.02
2019-04-28T09:00:39.153Z,77.07
2019-04-28T09:03:06.460Z,77.46
2019-04-28T09:05:33.535Z,77.46
2019-04-28T09:08:00.418Z,76.93
2019-04-28T09:10:29.182Z,77.06
2019-04-28T09:12:56.109Z,76.12
2019-04-28T09:15:23.070Z,76.62
2019-04-28T09:17:50.039Z,76.52
2019-04-28T09:20:17.099Z,77.10
2019-04-28T09:22:43.937Z,77.29
2019-04-28T09:25:11.214Z,76.76
2019-04-28T09:27:38.194Z,76.93
2019-04-28T09:30:06.152Z,76.59
2019-04-28T09:32:33.282Z,76.20
2019-04-28T09:35:00.222Z,76.32
2019-04-28T09:37:27.675Z,76.41
2019-04-28T09:39:56.512Z,76.12
2019-04-28T09:42:29.564Z,76.27
2019-04-28T09:44:57.677Z,76.20
2019-04-28T09:47:24.615Z,76.70
2019-04-28T09:49:51.755Z,75.84
2019-04-28T09:52:18.732Z,76.41
2019-04-28T09:54:45.795Z,76.37
2019-04-28T09:57:12.721Z,76.34
2019-04-28T09:59:39.535Z,76.41
2019-04-28T10:02:07.015Z,77.42
2019-04-28T10:04:41.274Z,76.46
2019-04-28T10:07:02.916Z,75.76
2019-04-28T10:09:29.934Z,75.87
2019-04-28T10:11:56.883Z,76.07
2019-04-28T10:14:23.866Z,76.05
2019-04-28T10:16:50.676Z,76.28
2019-04-28T10:19:17.925Z,75.91
2019-04-28T10:21:45.042Z,75.65
2019-04-28T10:24:12.015Z,75.99
2019-04-28T10:26:39.080Z,76.73
2019-04-28T10:29:05.993Z,76.36
2019-04-28T10:31:33.203Z,76.71
2019-04-28T10:34:02.090Z,76.86
2019-04-28T10:36:30.643Z,77.50
2019-04-28T10:38:59.392Z,76.91
2019-04-28T10:41:31.047Z,76.22
2019-04-28T10:43:58.004Z,76.09
2019-04-28T10:46:25.195Z,76.38
2019-04-28T10:48:52.033Z,76.47
2019-04-28T10:51:19.290Z,76.33
2019-04-28T10:53:46.316Z,76.42
2019-04-28T10:56:13.204Z,76.35
2019-04-28T10:58:41.920Z,76.55
2019-04-28T11:01:08.871Z,76.32
2019-04-28T11:03:35.778Z,75.73
2019-04-28T11:06:02.935Z,75.79
2019-04-28T11:08:34.898Z,75.90
2019-04-28T11:11:03.731Z,76.03
2019-04-28T11:13:30.787Z,75.75
2019-04-28T11:15:57.592Z,76.31
2019-04-28T11:18:24.719Z,75.91
2019-04-28T11:20:51.651Z,75.95
2019-04-28T11:23:18.675Z,75.37
2019-04-28T11:25:46.016Z,75.51
2019-04-28T11:28:12.992Z,75.26
2019-04-28T11:30:40.163Z,75.47
2019-04-28T11:33:25.571Z,75.22
2019-04-28T11:35:52.632Z,75.03
2019-04-28T11:38:19.528Z,75.25
2019-04-28T11:40:46.585Z,75.73
2019-04-28T11:43:13.690Z,75.48
2019-04-28T11:45:41.036Z,75.67
2019-04-28T11:48:07.955Z,75.54
2019-04-28T11:50:35.125Z,75.25
2019-04-28T11:53:02.030Z,75.06
2019-04-28T11:55:28.882Z,75.36
2019-04-28T11:57:55.817Z,75.74
2019-04-28T12:00:30.638Z,75.96
2019-04-28T12:02:58.027Z,76.14
2019-04-28T12:05:34.362Z,75.14
2019-04-28T12:07:55.991Z,75.59
2019-04-28T12:10:35.216Z,75.80
2019-04-28T12:13:06.939Z,75.62
2019-04-28T12:15:52.532Z,76.03
2019-04-28T12:18:38.431Z,76.30
2019-04-28T12:21:05.305Z,76.30
2019-04-28T12:23:32.131Z,76.76
2019-04-28T12:25:59.261Z,76.77
2019-04-28T12:28:26.368Z,76.61
2019-04-28T12:30:53.340Z,76.89
2019-04-28T12:33:20.692Z,77.03
2019-04-28T12:35:48.360Z,76.71
2019-04-28T12:38:15.611Z,76.58
2019-04-28T12:40:42.739Z,76.51
2019-04-28T12:43:10.231Z,76.90
2019-04-28T12:45:37.353Z,77.15
2019-04-28T12:48:04.513Z,77.04
2019-04-28T12:50:39.104Z,76.25
2019-04-28T12:53:06.569Z,76.72
2019-04-28T12:55:33.883Z,76.34
2019-04-28T12:58:05.289Z,76.67
2019-04-28T13:00:51.309Z,76.82
2019-04-28T13:03:36.930Z,76.69
2019-04-28T13:06:06.130Z,76.50
2019-04-28T13:08:33.682Z,77.38
2019-04-28T13:11:00.595Z,76.38
2019-04-28T13:13:27.824Z,76.15
2019-04-28T13:15:55.014Z,76.08
2019-04-28T13:18:22.064Z,76.57
2019-04-28T13:20:49.087Z,76.16
2019-04-28T13:23:15.956Z,76.68
2019-04-28T13:25:42.910Z,76.17
2019-04-28T13:28:10.107Z,76.71
2019-04-28T13:30:37.040Z,76.93
2019-04-28T13:33:04.595Z,77.06
2019-04-28T13:35:31.957Z,77.02
2019-04-28T13:37:58.963Z,76.71
2019-04-28T13:40:30.434Z,76.20
2019-04-28T13:42:58.023Z,76.35
2019-04-28T13:45:28.944Z,76.00
2019-04-28T13:47:56.454Z,76.70
2019-04-28T13:50:29.853Z,76.70
2019-04-28T13:52:57.107Z,76.67
2019-04-28T13:55:24.357Z,76.92
2019-04-28T13:57:51.273Z,76.93
2019-04-28T14:00:21.215Z,76.93
2019-04-28T14:02:52.934Z,77.30
2019-04-28T14:05:23.169Z,77.09
2019-04-28T14:07:50.208Z,77.53
2019-04-28T14:10:17.542Z,77.90
2019-04-28T14:12:44.545Z,77.63
2019-04-28T14:15:12.006Z,77.40
2019-04-28T14:17:38.959Z,77.32
2019-04-28T14:20:06.768Z,77.90
2019-04-28T14:22:33.849Z,77.90
2019-04-28T14:25:01.172Z,78.18
2019-04-28T14:27:28.688Z,78.38
2019-04-28T14:29:55.721Z,78.38
2019-04-28T14:32:22.818Z,78.82
2019-04-28T14:34:49.643Z,77.58
2019-04-28T14:37:17.013Z,77.97
2019-04-28T14:39:44.283Z,77.97
2019-04-28T14:42:11.603Z,78.24
2019-04-28T14:44:38.644Z,77.77
2019-04-28T14:47:05.737Z,77.61
2019-04-28T14:49:32.707Z,77.61
2019-04-28T14:52:00.015Z,78.12
2019-04-28T14:57:07.743Z,77.94
2019-04-28T14:59:34.733Z,78.71
2019-04-28T15:02:01.704Z,78.65
2019-04-28T15:04:30.447Z,78.42
2019-04-28T15:07:02.087Z,78.01
2019-04-28T15:09:32.849Z,78.48
2019-04-28T15:12:01.801Z,78.35
2019-04-28T15:14:28.762Z,78.49
2019-04-28T15:16:55.896Z,78.31
2019-04-28T15:19:22.795Z,78.75
2019-04-28T15:21:50.032Z,78.58
2019-04-28T15:24:16.947Z,79.08
2019-04-28T15:26:43.800Z,78.24
2019-04-28T15:29:10.865Z,77.71
2019-04-28T15:31:37.853Z,77.71
2019-04-28T15:34:05.051Z,78.19
2019-04-28T15:36:32.260Z,77.91
2019-04-28T15:38:59.155Z,77.33
2019-04-28T15:41:26.311Z,77.85
2019-04-28T15:43:53.429Z,78.09
2019-04-28T15:46:20.366Z,78.11
2019-04-28T15:48:47.803Z,77.90
2019-04-28T15:51:14.696Z,78.17
2019-04-28T15:53:43.844Z,78.11
2019-04-28T15:56:24.931Z,77.78
2019-04-28T15:58:52.046Z,78.20
2019-04-28T16:01:19.087Z,78.84
2019-04-28T16:03:46.152Z,78.30
2019-04-28T16:06:13.078Z,78.57
2019-04-28T16:08:40.287Z,77.97
2019-04-28T16:11:07.586Z,78.79
2019-04-28T16:13:34.492Z,79.25
2019-04-28T16:16:01.644Z,79.10
2019-04-28T16:18:28.796Z,79.28
2019-04-28T16:20:56.215Z,79.00
2019-04-28T16:23:23.615Z,79.48
2019-04-28T16:25:50.574Z,79.61
2019-04-28T16:28:17.746Z,79.61
2019-04-28T16:30:45.200Z,79.55
2019-04-28T16:33:12.180Z,79.44
2019-04-28T16:35:39.192Z,78.91
2019-04-28T16:38:06.138Z,78.58
2019-04-28T16:40:36.632Z,78.50
2019-04-28T16:43:05.612Z,78.81
2019-04-28T16:45:32.422Z,77.89
2019-04-28T16:47:59.776Z,78.29
2019-04-28T16:50:27.515Z,78.47
2019-04-28T16:52:54.352Z,78.02
2019-04-28T16:55:29.069Z,77.45
2019-04-28T16:58:14.721Z,77.28
2019-04-28T17:00:44.483Z,78.50
2019-04-28T17:03:11.817Z,78.48
2019-04-28T17:05:38.653Z,78.87
2019-04-28T17:08:05.614Z,78.00
2019-04-28T17:10:32.413Z,78.63
2019-04-28T17:12:59.521Z,78.88
2019-04-28T17:15:26.572Z,79.04
2019-04-28T17:17:54.162Z,79.05
2019-04-28T17:20:23.157Z,79.16
2019-04-28T17:22:50.675Z,79.36
2019-04-28T17:25:17.780Z,79.13
2019-04-28T17:27:44.836Z,78.39
2019-04-28T17:30:13.944Z,79.23
2019-04-28T17:32:42.016Z,79.34
2019-04-28T17:35:09.220Z,79.88
2019-04-28T17:37:36.336Z,79.49
2019-04-28T17:40:05.461Z,79.62
2019-04-28T17:42:32.573Z,79.81
2019-04-28T17:44:59.756Z,79.53
2019-04-28T17:47:27.066Z,78.75
2019-04-28T17:49:54.140Z,79.05
2019-04-28T17:52:21.246Z,78.82
2019-04-28T17:54:48.215Z,79.21
2019-04-28T17:57:15.437Z,79.03
2019-04-28T17:59:42.980Z,78.99
2019-04-28T18:02:28.952Z,79.38
2019-04-28T18:05:00.796Z,79.71
2019-04-28T18:07:30.084Z,79.93
2019-04-28T18:09:57.091Z,79.62
2019-04-28T18:12:24.257Z,80.16
2019-04-28T18:14:53.099Z,80.25
2019-04-28T18:17:26.220Z,79.40
2019-04-28T18:19:53.474Z,79.48
2019-04-28T18:22:20.379Z,79.76
2019-04-28T18:24:47.312Z,79.80
2019-04-28T18:27:14.240Z,80.03
2019-04-28T18:29:41.180Z,80.27
2019-04-28T18:32:15.837Z,79.92
2019-04-28T18:34:47.453Z,79.39
2019-04-28T18:37:17.178Z,79.93
2019-04-28T18:40:02.683Z,79.96
2019-04-28T18:42:34.809Z,79.76
2019-04-28T18:45:02.259Z,80.01
2019-04-28T18:47:29.304Z,79.78
2019-04-28T18:49:56.430Z,79.87
2019-04-28T18:52:23.453Z,80.18
2019-04-28T18:54:51.598Z,80.11
2019-04-28T18:57:18.505Z,80.01
2019-04-28T18:59:45.729Z,80.18
2019-04-28T19:02:14.546Z,80.33
2019-04-28T19:04:41.509Z,80.49
2019-04-28T19:07:10.531Z,80.06
2019-04-28T19:09:51.594Z,79.78
2019-04-28T19:12:29.363Z,79.90
2019-04-28T19:14:58.533Z,79.82
2019-04-28T19:17:27.801Z,80.24
2019-04-28T19:19:54.824Z,80.32
2019-04-28T19:22:21.907Z,80.26
2019-04-28T19:24:48.864Z,80.20
2019-04-28T19:27:15.982Z,80.10
2019-04-28T19:29:42.971Z,80.06
2019-04-28T19:32:10.164Z,80.15
2019-04-28T19:34:37.472Z,80.20
2019-04-28T19:37:04.639Z,80.25
2019-04-28T19:39:31.867Z,80.49
2019-04-28T19:41:58.978Z,80.69
2019-04-28T19:44:26.264Z,80.09
2019-04-28T19:46:53.351Z,80.44
2019-04-28T19:49:20.395Z,80.37
2019-04-28T19:51:47.715Z,79.93
2019-04-28T19:54:16.819Z,80.39
2019-04-28T19:56:48.922Z,80.47
2019-04-28T19:59:23.436Z,80.58
2019-04-28T20:01:50.555Z,80.30
2019-04-28T20:04:17.803Z,80.41
2019-04-28T20:06:44.782Z,80.41
2019-04-28T20:09:12.470Z,80.42
2019-04-28T20:11:39.543Z,80.01
2019-04-28T20:14:06.679Z,80.39
2019-04-28T20:16:33.571Z,79.62
2019-04-28T20:19:00.602Z,80.58
2019-04-28T20:21:27.761Z,80.62
2019-04-28T20:23:54.863Z,80.04
2019-04-28T20:26:22.050Z,80.58
2019-04-28T20:28:48.962Z,80.36
2019-04-28T20:31:15.995Z,80.69
2019-04-28T20:33:43.395Z,81.53
2019-04-28T20:36:25.808Z,81.10
2019-04-28T20:38:57.326Z,80.53
2019-04-28T20:41:26.559Z,80.99
2019-04-28T20:43:54.752Z,81.02
2019-04-28T20:46:21.655Z,80.25
2019-04-28T20:48:48.594Z,80.56
2019-04-28T20:51:15.814Z,80.79
2019-04-28T20:53:42.781Z,80.14
2019-04-28T20:56:09.670Z,79.79
2019-04-28T20:58:36.615Z,79.72
2019-04-28T21:01:04.129Z,80.44
2019-04-28T21:03:31.176Z,80.32
2019-04-28T21:05:58.063Z,80.39
2019-04-28T21:08:25.606Z,80.29
2019-04-28T21:10:52.719Z,80.51
2019-04-28T21:13:19.875Z,80.30
2019-04-28T21:15:47.084Z,80.22
2019-04-28T21:18:14.178Z,79.71
2019-04-28T21:20:41.308Z,79.91
2019-04-28T21:23:08.239Z,80.02
2019-04-28T21:25:35.604Z,79.66
2019-04-28T21:28:03.549Z,79.76
2019-04-28T21:30:30.627Z,80.11
2019-04-28T21:32:57.539Z,80.41
2019-04-28T21:35:24.367Z,79.65
2019-04-28T21:37:52.172Z,80.52
2019-04-28T21:40:19.413Z,80.75
2019-04-28T21:42:55.532Z,80.72
2019-04-28T21:45:41.114Z,79.98
2019-04-28T21:48:08.567Z,81.09
2019-04-28T21:50:35.606Z,80.40
2019-04-28T21:53:02.619Z,80.47
2019-04-28T21:55:29.947Z,79.96
2019-04-28T21:57:56.866Z,80.29
2019-04-28T22:00:47.491Z,80.73
2019-04-28T22:03:14.336Z,80.51
2019-04-28T22:05:41.612Z,80.55
2019-04-28T22:08:08.531Z,80.84
2019-04-28T22:10:35.613Z,80.65
2019-04-28T22:13:03.035Z,80.67
2019-04-28T22:15:29.976Z,80.45
2019-04-28T22:17:57.108Z,80.94
2019-04-28T22:20:24.023Z,80.80
2019-04-28T22:22:51.024Z,80.83
2019-04-28T22:25:20.213Z,80.53
2019-04-28T22:27:47.349Z,80.73
2019-04-28T22:30:15.182Z,80.93
2019-04-28T22:32:42.724Z,80.93
2019-04-28T22:35:09.892Z,80.89
2019-04-28T22:37:37.028Z,80.91
2019-04-28T22:40:05.864Z,81.55
2019-04-28T22:42:33.103Z,81.37
2019-04-28T22:45:00.268Z,81.52
2019-04-28T22:47:27.307Z,81.41
2019-04-28T22:49:54.251Z,81.96
2019-04-28T22:52:21.186Z,81.95
2019-04-28T22:54:48.576Z,82.03
2019-04-28T22:57:17.500Z,82.14
2019-04-28T22:59:46.319Z,82.22
2019-04-28T23:02:15.187Z,82.24
2019-04-28T23:05:02.250Z,82.46
2019-04-28T23:07:29.522Z,82.58
2019-04-28T23:09:56.555Z,82.70
2019-04-28T23:12:24.299Z,82.57
2019-04-28T23:14:51.259Z,82.29
2019-04-28T23:17:19.692Z,82.44
2019-04-28T23:19:46.712Z,82.48
2019-04-28T23:22:45.883Z,82.40
2019-04-28T23:25:01.212Z,82.56
2019-04-28T23:27:28.213Z,82.68
2019-04-28T23:29:55.762Z,82.28
2019-04-28T23:32:22.563Z,82.75
2019-04-28T23:34:49.563Z,82.68
2019-04-28T23:37:16.736Z,82.32
2019-04-28T23:39:43.868Z,82.75
2019-04-28T23:42:12.719Z,82.64
2019-04-28T23:44:40.036Z,82.23
2019-04-28T23:47:07.435Z,82.66
2019-04-28T23:49:34.486Z,83.35
2019-04-28T23:52:01.465Z,82.38
2019-04-28T23:54:28.451Z,83.01
2019-04-28T23:56:55.330Z,82.85
2019-04-28T23:59:22.232Z,82.76
